Time;durP1;ratioP1;P1;durP2;ratioP2;P2;SDS_P1;SDS_P2;PMS_P1;PMS_P2;Temp;Humidity;BMP_temperature;BMP_pressure;BME280_temperature;BME280_humidity;BME280_pressure;Samples;Min_cycle;Max_cycle;Signal;HPM_P1;HPM_P2
2021/04/06 00:00:09;;;;;;;21.58;15.85;;;;;;;18.31;25.34;93634.41;5086993;28;20063;-42
2021/04/06 00:02:38;;;;;;;20.42;16.10;;;;;;;18.10;25.80;93631.38;5074475;28;20044;-41
2021/04/06 00:05:07;;;;;;;18.08;13.57;;;;;;;18.13;25.65;93620.09;5074288;28;20049;-42
2021/04/06 00:07:37;;;;;;;18.48;13.95;;;;;;;17.94;26.16;93620.13;5074330;28;20048;-42
2021/04/06 00:10:30;;;;;;;18.02;14.25;;;;;;;17.85;25.96;93620.34;5082502;28;20048;-41
2021/04/06 00:12:59;;;;;;;20.17;13.57;;;;;;;17.95;25.89;93616.38;5084668;28;20379;-40
2021/04/06 00:15:28;;;;;;;18.42;12.85;;;;;;;18.04;25.93;93614.28;5093899;28;20063;-42
2021/04/06 00:17:59;;;;;;;17.23;13.30;;;;;;;18.02;25.87;93606.69;5093437;28;20051;-41
2021/04/06 00:20:28;;;;;;;14.60;11.48;;;;;;;18.21;25.66;93608.53;5085215;28;20050;-42
2021/04/06 00:22:59;;;;;;;14.90;12.32;;;;;;;18.01;25.86;93605.16;5077572;28;20056;-41
2021/04/06 00:25:35;;;;;;;18.67;12.85;;;;;;;17.68;26.07;93594.34;5095215;28;20052;-41
2021/04/06 00:28:05;;;;;;;16.23;13.15;;;;;;;18.12;25.65;93590.25;5095333;28;20056;-41
2021/04/06 00:30:34;;;;;;;12.80;10.40;;;;;;;18.33;25.31;93584.56;5093955;28;20059;-42
2021/04/06 00:33:04;;;;;;;11.45;9.73;;;;;;;18.14;25.53;93584.59;5082219;28;20041;-42
2021/04/06 00:35:34;;;;;;;18.10;14.63;;;;;;;18.01;25.54;93577.97;5091190;28;20587;-41
2021/04/06 00:38:02;;;;;;;21.02;16.02;;;;;;;17.79;25.89;93572.28;5095307;28;20059;-41
2021/04/06 00:40:33;;;;;;;16.40;14.10;;;;;;;17.85;25.98;93565.59;5094138;28;20059;-41
2021/04/06 00:43:02;;;;;;;14.60;12.50;;;;;;;17.74;26.24;93567.28;5093973;28;20051;-56
2021/04/06 00:45:32;;;;;;;15.05;11.00;;;;;;;17.66;26.23;93564.81;5093836;28;20055;-41
2021/04/06 00:48:02;;;;;;;16.30;13.20;;;;;;;18.20;25.21;93564.66;5094984;28;20060;-40
2021/04/06 00:50:34;;;;;;;14.52;11.30;;;;;;;17.49;26.41;93563.38;5083857;28;20044;-40
2021/04/06 00:53:05;;;;;;;13.02;10.40;;;;;;;17.68;26.30;93555.44;5074704;28;20055;-41
2021/04/06 00:55:35;;;;;;;13.73;10.68;;;;;;;17.92;25.94;93545.69;5074864;28;20044;-41
2021/04/06 00:58:11;;;;;;;11.55;9.65;;;;;;;18.11;25.63;93530.53;5081688;28;20040;-40
2021/04/06 01:00:38;;;;;;;11.50;9.80;;;;;;;17.96;26.09;93546.53;5082955;28;20053;-41
2021/04/06 01:03:17;;;;;;;11.02;8.80;;;;;;;18.10;25.67;93534.28;5086446;28;20434;-41
2021/04/06 01:05:59;;;;;;;10.25;8.85;;;;;;;17.99;25.97;93528.06;5094806;28;20474;-42
2021/04/06 01:08:35;;;;;;;11.75;8.15;;;;;;;17.82;25.97;93529.28;5095058;28;20078;-47
2021/04/06 01:11:03;;;;;;;13.07;8.88;;;;;;;17.70;26.14;93533.97;5079710;28;20055;-41
2021/04/06 01:13:33;;;;;;;11.10;8.77;;;;;;;17.90;26.04;93534.69;5074717;28;20048;-42
2021/04/06 01:16:01;;;;;;;10.82;8.90;;;;;;;17.78;26.35;93538.28;5078664;28;20064;-41
2021/04/06 01:18:28;;;;;;;11.15;8.85;;;;;;;17.94;25.92;93535.50;5077435;28;20051;-41
2021/04/06 01:20:56;;;;;;;10.27;9.07;;;;;;;17.82;26.09;93534.56;5084629;28;20071;-41
2021/04/06 01:23:24;;;;;;;11.75;9.07;;;;;;;17.46;26.42;93530.50;5078212;28;20059;-41
2021/04/06 01:25:57;;;;;;;11.57;9.68;;;;;;;18.07;25.59;93535.00;5078148;28;20366;-42
2021/04/06 01:28:28;;;;;;;11.88;9.63;;;;;;;17.42;26.85;93536.81;5078259;28;20052;-41
2021/04/06 01:30:57;;;;;;;12.48;9.13;;;;;;;17.54;26.29;93524.22;5077229;28;20056;-41
2021/04/06 01:33:31;;;;;;;11.95;9.20;;;;;;;17.80;26.13;93526.22;5093690;28;20055;-41
2021/04/06 01:36:05;;;;;;;10.23;9.13;;;;;;;17.86;26.03;93514.25;5098059;28;20063;-42
2021/04/06 01:38:34;;;;;;;13.95;9.05;;;;;;;17.59;26.15;93515.25;5098367;28;20055;-41
2021/04/06 01:41:02;;;;;;;10.45;9.00;;;;;;;17.34;26.29;93519.28;5096803;28;20055;-41
2021/04/06 01:43:30;;;;;;;12.45;8.98;;;;;;;17.42;26.49;93518.31;5077746;28;20048;-41
2021/04/06 01:46:00;;;;;;;10.65;8.55;;;;;;;17.36;26.65;93511.78;5077744;28;20060;-41
2021/04/06 01:48:29;;;;;;;12.70;9.38;;;;;;;17.27;26.85;93517.28;5077967;28;20467;-42
2021/04/06 01:50:57;;;;;;;10.18;9.07;;;;;;;17.66;26.35;93520.66;5077729;28;20465;-47
2021/04/06 01:53:25;;;;;;;11.63;9.45;;;;;;;17.16;26.74;93518.94;5098086;28;20055;-42
2021/04/06 01:56:07;;;;;;;11.68;9.80;;;;;;;17.35;26.55;93518.19;5098013;28;20048;-41
2021/04/06 01:58:36;;;;;;;11.48;9.18;;;;;;;17.35;26.79;93507.63;5097487;28;20442;-42
2021/04/06 02:03:35;;;;;;;10.80;9.07;;;;;;;17.65;26.29;93505.91;5094100;28;20044;-40
2021/04/06 02:06:03;;;;;;;10.95;9.10;;;;;;;17.51;26.38;93503.03;5092239;28;20048;-41
2021/04/06 02:08:31;;;;;;;11.00;8.85;;;;;;;17.42;26.32;93492.66;5077572;28;20044;-41
2021/04/06 02:10:59;;;;;;;13.68;10.27;;;;;;;17.12;26.90;93492.47;5077318;28;20465;-41
2021/04/06 02:13:27;;;;;;;15.18;11.05;;;;;;;17.35;26.32;93489.88;5096456;28;20044;-40
2021/04/06 02:16:00;;;;;;;12.57;9.70;;;;;;;17.46;26.21;93490.88;5097633;28;20052;-41
2021/04/06 02:18:29;;;;;;;12.52;9.05;;;;;;;17.08;27.06;93481.06;5097541;28;20044;-42
2021/04/06 02:20:58;;;;;;;13.02;9.57;;;;;;;17.43;26.09;93485.50;5079013;28;20040;-41
2021/04/06 02:23:28;;;;;;;12.52;9.32;;;;;;;16.92;27.09;93485.66;5076862;28;20048;-41
2021/04/06 02:25:56;;;;;;;11.35;8.63;;;;;;;17.00;26.90;93484.69;5076585;28;20051;-41
2021/04/06 02:28:25;;;;;;;11.65;9.38;;;;;;;17.42;26.49;93481.31;5077151;28;20052;-41
2021/04/06 02:30:58;;;;;;;11.00;8.93;;;;;;;17.28;26.52;93489.75;5076754;28;20047;-41
2021/04/06 02:33:45;;;;;;;11.48;8.57;;;;;;;17.05;26.87;93492.31;5092148;28;20370;-40
2021/04/06 02:36:13;;;;;;;12.45;9.18;;;;;;;17.48;26.44;93482.59;5097309;28;20040;-41
2021/04/06 02:38:43;;;;;;;12.77;9.70;;;;;;;17.86;25.83;93487.81;5091728;28;20060;-41
2021/04/06 02:41:15;;;;;;;14.40;8.85;;;;;;;17.26;26.48;93487.47;5084578;28;20052;-41
2021/04/06 02:43:50;;;;;;;12.93;9.60;;;;;;;16.93;27.09;93493.25;5096901;28;20040;-40
2021/04/06 02:46:26;;;;;;;12.75;9.80;;;;;;;17.67;26.13;93492.34;5095925;28;20651;-41
2021/04/06 02:48:59;;;;;;;12.68;9.57;;;;;;;17.49;26.34;93486.75;5096860;28;20059;-41
2021/04/06 02:51:26;;;;;;;12.50;9.67;;;;;;;17.47;26.44;93492.41;5078546;28;20055;-42
2021/04/06 02:53:54;;;;;;;11.43;9.13;;;;;;;17.39;26.74;93487.31;5076475;28;20597;-41
2021/04/06 02:56:35;;;;;;;11.07;9.07;;;;;;;17.37;26.50;93481.59;5076599;28;20048;-41
2021/04/06 02:59:18;;;;;;;12.07;9.43;;;;;;;17.64;26.22;93483.25;5076691;28;20049;-41
2021/04/06 03:01:47;;;;;;;12.27;9.75;;;;;;;17.16;26.90;93482.72;5077792;28;20049;-41
2021/04/06 03:04:25;;;;;;;11.80;9.30;;;;;;;17.47;26.54;93471.25;5096481;28;20051;-40
2021/04/06 03:06:57;;;;;;;12.57;9.95;;;;;;;17.43;26.71;93486.25;5096643;28;20070;-41
2021/04/06 03:09:28;;;;;;;12.32;10.45;;;;;;;17.39;26.73;93484.66;5095782;28;20055;-41
2021/04/06 03:11:57;;;;;;;11.27;9.57;;;;;;;17.21;26.64;93474.53;5076053;28;20055;-41
2021/04/06 03:14:26;;;;;;;10.10;8.95;;;;;;;17.06;27.08;93475.38;5075300;28;20048;-41
2021/04/06 03:16:54;;;;;;;11.43;9.43;;;;;;;17.08;26.84;93470.50;5075961;28;20044;-40
2021/04/06 03:19:31;;;;;;;13.13;10.40;;;;;;;17.09;26.66;93466.75;5076085;28;20370;-41
2021/04/06 03:21:59;;;;;;;12.75;10.30;;;;;;;17.08;26.86;93469.75;5074984;28;20056;-41
2021/04/06 03:24:29;;;;;;;11.65;10.02;;;;;;;17.06;26.85;93477.25;5075945;28;20074;-41
2021/04/06 03:27:04;;;;;;;12.02;9.65;;;;;;;17.01;26.97;93449.25;5092104;28;20044;-42
2021/04/06 03:29:31;;;;;;;15.18;10.60;;;;;;;17.02;26.84;93469.25;5095688;28;20051;-41
2021/04/06 03:31:59;;;;;;;18.42;15.23;;;;;;;17.65;26.06;93474.19;5091697;28;20052;-41
2021/04/06 03:34:33;;;;;;;17.48;14.15;;;;;;;16.91;27.02;93463.00;5075208;28;20066;-42
2021/04/06 03:37:08;;;;;;;17.75;12.63;;;;;;;17.21;26.96;93448.13;5088072;28;20044;-41
2021/04/06 03:39:36;;;;;;;14.98;11.38;;;;;;;17.40;26.42;93462.41;5079302;28;20411;-44
2021/04/06 03:42:04;;;;;;;15.65;12.13;;;;;;;17.07;26.78;93455.78;5089938;28;20059;-41
2021/04/06 03:44:31;;;;;;;15.15;12.70;;;;;;;16.91;26.93;93440.03;5075729;28;20064;-41
2021/04/06 03:47:03;;;;;;;15.07;12.55;;;;;;;16.86;27.29;93460.63;5090444;28;20059;-42
2021/04/06 03:49:33;;;;;;;16.17;11.75;;;;;;;16.71;27.32;93458.84;5095939;28;20051;-41
2021/04/06 03:52:02;;;;;;;15.75;12.18;;;;;;;16.62;27.44;93457.09;5095657;28;20048;-41
2021/04/06 03:54:40;;;;;;;16.98;12.13;;;;;;;16.67;27.35;93445.56;5094900;28;20040;-49
2021/04/06 04:00:12;;;;;;;15.18;12.30;;;;;;;16.69;27.35;93464.47;5075434;28;20044;-42
2021/04/06 04:02:40;;;;;;;14.77;12.27;;;;;;;16.82;27.34;93457.16;5082659;28;20055;-41
2021/04/06 04:05:08;;;;;;;15.05;12.60;;;;;;;17.07;27.20;93460.28;5094078;28;20469;-41
2021/04/06 04:07:36;;;;;;;17.98;14.85;;;;;;;16.49;27.38;93457.59;5075346;28;20047;-40
2021/04/06 04:10:11;;;;;;;13.38;11.63;;;;;;;16.90;27.29;93456.94;5075308;28;20356;-41
2021/04/06 04:12:38;;;;;;;15.75;11.43;;;;;;;17.19;27.13;93458.28;5075118;28;20048;-45
2021/04/06 04:15:07;;;;;;;14.95;11.60;;;;;;;17.14;27.21;93463.81;5074856;28;20048;-42
2021/04/06 04:17:34;;;;;;;16.10;12.45;;;;;;;16.96;27.25;93465.38;5075238;28;20048;-41
2021/04/06 04:20:09;;;;;;;14.60;12.35;;;;;;;16.75;27.39;93463.06;5075159;28;20439;-41
2021/04/06 04:22:36;;;;;;;16.92;13.23;;;;;;;16.87;27.42;93464.81;5075055;28;20044;-41
2021/04/06 04:25:08;;;;;;;15.80;12.07;;;;;;;16.84;27.53;93465.50;5074971;28;20040;-41
2021/04/06 04:27:35;;;;;;;16.83;12.13;;;;;;;17.26;27.04;93458.41;5075196;28;20049;-40
2021/04/06 04:30:04;;;;;;;14.48;12.60;;;;;;;17.04;27.36;93474.19;5075011;28;20048;-40
2021/04/06 04:32:31;;;;;;;15.10;12.00;;;;;;;17.10;27.24;93457.72;5083190;28;20043;-41
2021/04/06 04:34:58;;;;;;;18.40;13.40;;;;;;;17.07;27.30;93468.97;5095284;28;20043;-43
2021/04/06 04:37:25;;;;;;;24.50;16.92;;;;;;;17.25;26.94;93464.81;5094932;28;20350;-57
2021/04/06 04:39:53;;;;;;;24.27;17.88;;;;;;;18.02;26.43;93469.19;5093197;28;20040;-40
2021/04/06 04:42:20;;;;;;;36.63;23.75;;;;;;;24.15;18.71;93467.38;5082726;28;20047;-44
2021/04/06 04:44:47;;;;;;;28.00;19.88;;;;;;;25.40;17.23;93458.94;5090817;28;20466;-46
2021/04/06 04:47:14;;;;;;;18.58;14.90;;;;;;;25.48;17.03;93455.00;5089645;28;20060;-43
2021/04/06 04:49:41;;;;;;;14.50;11.82;;;;;;;25.44;17.20;93459.66;5098927;28;20556;-50
2021/04/06 04:52:08;;;;;;;16.63;12.95;;;;;;;26.19;16.35;93456.72;5099037;28;20059;-44
2021/04/06 04:54:35;;;;;;;16.77;14.98;;;;;;;25.88;16.61;93452.59;5099131;28;20047;-42
2021/04/06 04:57:03;;;;;;;13.23;11.20;;;;;;;26.27;16.38;93455.44;5098479;28;20044;-42
2021/04/06 04:59:30;;;;;;;12.70;11.40;;;;;;;26.67;16.31;93455.56;5098993;28;20044;-45
2021/04/06 05:01:57;;;;;;;13.23;11.82;;;;;;;26.43;16.35;93460.94;5094643;28;20063;-45
2021/04/06 05:04:24;;;;;;;13.95;11.10;;;;;;;24.49;18.01;93454.94;5078483;28;20064;-45
2021/04/06 05:06:51;;;;;;;12.55;11.15;;;;;;;22.80;20.09;93452.78;5078427;28;20362;-45
2021/04/06 05:09:18;;;;;;;13.50;12.10;;;;;;;22.20;20.95;93452.88;5078446;28;20044;-44
2021/04/06 05:11:45;;;;;;;16.08;12.98;;;;;;;21.91;21.07;93439.53;5091644;28;20556;-46
2021/04/06 05:14:12;;;;;;;14.27;12.23;;;;;;;19.74;23.89;93446.41;5098388;28;20055;-45
2021/04/06 05:16:39;;;;;;;15.48;12.50;;;;;;;19.27;24.59;93449.72;5091001;28;20055;-45
2021/04/06 05:19:06;;;;;;;16.83;13.38;;;;;;;19.09;25.38;93434.38;5098691;28;20044;-48
2021/04/06 05:21:34;;;;;;;15.45;12.90;;;;;;;18.99;25.42;93440.28;5091092;28;20044;-46
2021/04/06 05:24:01;;;;;;;16.40;12.90;;;;;;;19.07;25.59;93436.63;5078305;28;20045;-43
2021/04/06 05:26:28;;;;;;;15.55;13.20;;;;;;;19.36;25.12;93442.97;5077995;28;20059;-47
2021/04/06 05:28:55;;;;;;;17.98;14.25;;;;;;;19.16;25.40;93446.16;5078225;28;20056;-46
2021/04/06 05:31:22;;;;;;;17.88;13.88;;;;;;;19.08;25.66;93443.44;5078131;28;20044;-56
2021/04/06 05:33:54;;;;;;;15.88;13.27;;;;;;;19.85;24.36;93446.50;5097429;28;20048;-44
2021/04/06 05:36:21;;;;;;;20.05;15.15;;;;;;;19.87;24.80;93449.56;5089731;28;20056;-48
2021/04/06 05:38:49;;;;;;;17.50;14.13;;;;;;;19.35;25.03;93440.69;5078077;28;20431;-46
2021/04/06 05:41:17;;;;;;;19.00;14.55;;;;;;;19.49;25.88;93440.81;5079580;28;20044;-45
2021/04/06 05:43:47;;;;;;;19.17;14.38;;;;;;;19.96;24.83;93437.50;5098014;28;20055;-44
2021/04/06 05:46:14;;;;;;;19.88;14.23;;;;;;;19.73;25.12;93436.91;5089509;28;20051;-52
2021/04/06 05:48:43;;;;;;;17.55;13.82;;;;;;;19.87;24.95;93438.94;5076935;28;20477;-47
2021/04/06 05:51:10;;;;;;;20.75;15.15;;;;;;;20.04;25.03;93433.03;5076822;28;20059;-45
2021/04/06 05:53:37;;;;;;;18.70;13.95;;;;;;;20.10;24.53;93431.56;5077718;28;20387;-44
2021/04/06 05:56:05;;;;;;;18.85;14.30;;;;;;;19.97;25.51;93432.94;5077525;28;20447;-44
2021/04/06 05:58:32;;;;;;;14.25;12.35;;;;;;;20.01;24.36;93433.75;5076199;28;20044;-46
2021/04/06 06:01:00;;;;;;;17.83;13.40;;;;;;;20.66;23.94;93435.72;5080645;28;20497;-43
2021/04/06 06:03:27;;;;;;;16.10;13.10;;;;;;;20.36;24.09;93427.19;5080298;28;20052;-45
2021/04/06 06:05:55;;;;;;;17.17;13.80;;;;;;;20.78;23.59;93427.44;5080608;28;20048;-45
2021/04/06 06:08:22;;;;;;;14.07;11.90;;;;;;;20.74;23.29;93416.03;5097768;28;20055;-46
2021/04/06 06:11:10;;;;;;;13.25;11.50;;;;;;;21.22;23.34;93418.50;5096356;28;20045;-54
2021/04/06 06:13:37;;;;;;;14.25;12.70;;;;;;;20.60;23.44;93413.31;5097582;28;20382;-55
2021/04/06 06:16:18;;;;;;;14.90;12.80;;;;;;;20.73;23.30;93411.09;5092514;28;20063;-46
2021/04/06 06:19:03;;;;;;;15.05;12.82;;;;;;;21.15;23.04;93402.53;5077291;28;20055;-50
2021/04/06 06:21:46;;;;;;;18.52;13.82;;;;;;;21.22;22.77;93407.84;5077099;28;20056;-44
2021/04/06 06:24:38;;;;;;;15.55;13.13;;;;;;;21.70;23.12;93411.03;5077308;28;20040;-44
2021/04/06 06:27:33;;;;;;;32.67;22.80;;;;;;;21.99;22.13;93406.47;5076733;28;20048;-46
2021/04/06 06:30:56;;;;;;;80.32;57.05;;;;;;;22.08;22.87;93414.84;5092777;28;20074;-44
2021/04/06 06:33:27;;;;;;;20.60;14.73;;;;;;;22.09;21.34;93411.03;5079454;28;20052;-44
2021/04/06 06:35:59;;;;;;;15.90;13.98;;;;;;;21.81;22.64;93411.78;5079302;28;20040;-50
2021/04/06 06:38:29;;;;;;;;;;;;;;;21.65;22.19;93413.31;5097780;28;20075;-44
2021/04/06 06:41:19;;;;;;;15.23;13.40;;;;;;;21.74;22.36;93411.03;5096903;28;19919;-48
2021/04/06 06:43:51;;;;;;;19.08;14.52;;;;;;;22.06;22.59;93406.47;5097014;28;20079;-44
2021/04/06 06:46:21;;;;;;;18.33;14.35;;;;;;;22.20;21.85;93399.66;5090899;28;20053;-50
2021/04/06 06:49:03;;;;;;;17.13;14.57;;;;;;;22.87;22.25;93393.41;5076810;28;20048;-44
2021/04/06 06:51:32;;;;;;;17.80;13.88;;;;;;;22.74;21.88;93385.81;5076719;28;20045;-45
2021/04/06 06:53:59;;;;;;;15.25;13.23;;;;;;;23.29;21.54;93393.22;5091559;28;20055;-44
2021/04/06 06:56:37;;;;;;;14.68;11.90;;;;;;;22.97;20.39;93387.28;5089855;28;20040;-45
2021/04/06 06:59:05;;;;;;;14.70;12.00;;;;;;;23.03;21.09;93389.16;5075525;28;20083;-57
2021/04/06 07:01:37;;;;;;;16.55;12.90;;;;;;;23.27;21.92;93376.84;5076487;28;20052;-44
2021/04/06 07:04:10;;;;;;;14.70;13.15;;;;;;;23.89;20.03;93381.41;5096431;28;20043;-44
2021/04/06 07:06:41;;;;;;;;;;;;;;;23.56;20.13;93376.72;5089237;28;20045;-45
2021/04/06 07:09:28;;;;;;;13.00;11.68;;;;;;;23.50;20.40;93370.25;5076701;28;19916;-48
2021/04/06 07:12:02;;;;;;;12.98;11.38;;;;;;;23.80;20.37;93373.09;5076044;28;20052;-45
2021/04/06 07:14:31;;;;;;;16.98;13.43;;;;;;;24.16;21.54;93365.53;5076093;28;20451;-44
2021/04/06 07:17:01;;;;;;;15.13;12.63;;;;;;;23.76;21.80;93367.03;5085642;28;20051;-44
2021/04/06 07:19:28;;;;;;;14.48;12.63;;;;;;;23.61;22.25;93376.28;5095347;28;20044;-46
2021/04/06 07:21:57;;;;;;;12.88;11.57;;;;;;;23.53;20.80;93375.56;5095130;28;20374;-44
2021/04/06 07:24:28;;;;;;;13.77;12.38;;;;;;;23.83;20.26;93372.31;5095231;28;20044;-45
2021/04/06 07:26:57;;;;;;;15.95;12.30;;;;;;;24.45;21.06;93368.72;5086316;28;20055;-43
2021/04/06 07:29:25;;;;;;;13.43;10.98;;;;;;;24.35;20.01;93364.25;5085154;28;20039;-58
2021/04/06 07:31:53;;;;;;;11.90;10.25;;;;;;;24.61;19.59;93365.50;5091543;28;20451;-45
2021/04/06 07:34:20;;;;;;;12.32;10.93;;;;;;;24.71;20.48;93355.84;5075840;28;20044;-47
2021/04/06 07:36:47;;;;;;;11.80;10.18;;;;;;;24.78;19.30;93353.13;5075496;28;20447;-44
2021/04/06 07:39:15;;;;;;;10.13;8.90;;;;;;;24.87;20.63;93356.03;5087705;28;20044;-47
2021/04/06 07:41:44;;;;;;;10.43;9.32;;;;;;;24.95;19.78;93357.47;5094095;28;20055;-45
2021/04/06 07:44:12;;;;;;;10.50;9.38;;;;;;;25.18;19.97;93360.25;5094958;28;20047;-51
2021/04/06 07:46:41;;;;;;;10.57;9.43;;;;;;;25.02;19.14;93359.34;5088587;28;20055;-51
2021/04/06 07:49:16;;;;;;;11.45;10.10;;;;;;;24.99;19.74;93358.22;5075620;28;20052;-45
2021/04/06 07:51:46;;;;;;;10.73;9.55;;;;;;;25.05;20.00;93345.94;5074270;28;20048;-47
2021/04/06 07:54:20;;;;;;;11.40;10.10;;;;;;;25.30;19.72;93350.19;5075697;28;20040;-45
2021/04/06 07:56:58;;;;;;;12.82;9.80;;;;;;;25.35;19.48;93341.72;5082775;28;20039;-46
2021/04/06 07:59:26;;;;;;;15.27;9.88;;;;;;;25.11;19.75;93344.31;5095761;28;20447;-45
2021/04/06 08:01:56;;;;;;;10.38;9.38;;;;;;;25.27;18.48;93335.72;5092099;28;20493;-45
2021/04/06 08:04:44;;;;;;;12.77;9.77;;;;;;;25.13;20.72;93330.53;5075448;28;20048;-44
2021/04/06 08:07:28;;;;;;;11.05;9.52;;;;;;;25.59;19.67;93329.88;5075100;28;20052;-51
2021/04/06 08:10:02;;;;;;;12.63;9.57;;;;;;;25.37;18.41;93323.34;5089126;28;20457;-44
2021/04/06 08:12:33;;;;;;;12.93;10.25;;;;;;;25.88;18.45;93318.75;5083913;28;20489;-50
2021/04/06 08:15:31;;;;;;;11.02;9.73;;;;;;;25.79;19.53;93312.00;5075333;28;20060;-45
2021/04/06 08:17:59;;;;;;;11.50;9.65;;;;;;;25.63;19.04;93297.72;5059489;28;20048;-46
2021/04/06 08:20:31;;;;;;;12.85;9.73;;;;;;;26.07;18.63;93293.94;5075261;28;20055;-45
2021/04/06 08:23:35;;;;;;;10.90;9.60;;;;;;;26.27;20.51;93297.38;5074802;28;20048;-44
2021/04/06 08:26:02;;;;;;;11.82;9.27;;;;;;;26.30;19.19;93291.22;5013204;28;20296;-44
2021/04/06 08:28:36;;;;;;;11.77;10.30;;;;;;;27.06;17.95;93290.50;5082992;28;20047;-44
2021/04/06 08:31:15;;;;;;;12.15;9.55;;;;;;;26.14;19.09;93283.09;5095169;28;20362;-44
2021/04/06 08:33:42;;;;;;;13.40;9.57;;;;;;;26.26;18.44;93289.75;5076539;28;20458;-46
2021/04/06 08:36:09;;;;;;;12.77;9.73;;;;;;;27.13;18.22;93269.69;5074796;28;20044;-43
2021/04/06 08:38:39;;;;;;;10.57;9.23;;;;;;;26.46;20.35;93271.06;5093738;28;20118;-45
2021/04/06 08:41:13;;;;;;;11.93;9.98;;;;;;;26.97;19.28;93270.38;5095063;28;20044;-43
2021/04/06 08:43:50;;;;;;;11.13;9.98;;;;;;;26.70;19.51;93259.81;5094011;28;20059;-44
2021/04/06 08:46:25;;;;;;;23.40;17.95;;;;;;;26.26;18.63;93263.72;5056305;28;20056;-44
2021/04/06 08:48:56;;;;;;;17.05;14.20;;;;;;;26.20;18.03;93259.28;5078346;28;20040;-44
2021/04/06 08:51:39;;;;;;;20.17;16.63;;;;;;;26.87;18.30;93251.84;5095039;28;20070;-46
2021/04/06 08:54:08;;;;;;;14.10;10.73;;;;;;;26.46;17.42;93265.69;5095060;28;20055;-45
2021/04/06 08:56:55;;;;;;;13.45;11.10;;;;;;;26.72;17.25;93252.13;5084239;28;20056;-44
2021/04/06 08:59:32;;;;;;;11.27;10.00;;;;;;;26.25;18.43;93248.81;5074706;28;20041;-51
2021/04/06 09:01:59;;;;;;;15.50;11.85;;;;;;;25.27;20.63;93244.03;5074318;28;20051;-44
2021/04/06 09:04:33;;;;;;;11.73;10.00;;;;;;;26.64;18.90;93250.78;5074909;28;20478;-44
2021/04/06 09:07:01;;;;;;;13.13;9.85;;;;;;;26.72;18.17;93240.66;5074387;28;20817;-45
2021/04/06 09:09:31;;;;;;;12.52;9.23;;;;;;;27.43;18.71;93235.66;5074888;28;20056;-51
2021/04/06 09:12:00;;;;;;;12.98;10.50;;;;;;;26.69;18.20;93246.84;5074559;28;20386;-45
2021/04/06 09:14:29;;;;;;;14.18;10.27;;;;;;;26.76;18.12;93238.66;5074714;28;20051;-44
2021/04/06 09:16:56;;;;;;;13.93;9.85;;;;;;;27.48;16.79;93225.16;5086669;28;20048;-49
2021/04/06 09:19:24;;;;;;;12.35;10.18;;;;;;;27.71;17.88;93226.19;5094834;28;20044;-45
2021/04/06 09:21:59;;;;;;;11.35;9.85;;;;;;;27.65;17.35;93217.88;5094697;28;20047;-48
2021/04/06 09:24:27;;;;;;;10.77;9.68;;;;;;;26.96;19.76;93212.53;5094742;28;20074;-45
2021/04/06 09:26:56;;;;;;;14.57;9.52;;;;;;;27.30;18.34;93214.09;5083221;28;20052;-47
2021/04/06 09:29:42;;;;;;;10.88;9.38;;;;;;;27.79;17.06;93201.41;5094809;28;20048;-47
2021/04/06 09:32:16;;;;;;;12.23;10.30;;;;;;;27.63;17.08;93204.88;5088900;28;20473;-43
2021/04/06 09:34:45;;;;;;;11.57;10.40;;;;;;;26.84;17.68;93197.13;5075111;28;20044;-49
2021/04/06 09:37:15;;;;;;;11.10;9.27;;;;;;;27.64;18.10;93192.97;5092541;28;20469;-45
2021/04/06 09:39:45;;;;;;;10.75;9.18;;;;;;;27.86;17.70;93184.38;5098347;28;20051;-45
2021/04/06 09:42:13;;;;;;;11.55;9.57;;;;;;;27.82;17.67;93194.44;5097508;28;20047;-45
2021/04/06 09:44:42;;;;;;;11.77;9.10;;;;;;;28.01;16.94;93184.72;5098241;28;20055;-45
2021/04/06 09:47:23;;;;;;;9.20;8.18;;;;;;;28.35;16.68;93179.56;5083776;28;20063;-44
2021/04/06 09:49:52;;;;;;;13.85;8.57;;;;;;;27.88;16.82;93176.66;5077948;28;20060;-45
2021/04/06 09:52:25;;;;;;;13.45;9.23;;;;;;;28.50;16.70;93182.63;5077237;28;20355;-44
2021/04/06 09:54:56;;;;;;;10.23;8.30;;;;;;;28.48;16.00;93168.84;5077990;28;20055;-46
2021/04/06 09:57:33;;;;;;;11.18;8.43;;;;;;;28.27;16.39;93164.09;5077439;28;20071;-47
2021/04/06 10:00:01;;;;;;;9.70;7.78;;;;;;;28.06;16.42;93165.41;5077472;28;20052;-44
2021/04/06 10:02:29;;;;;;;15.15;8.27;;;;;;;28.75;15.73;93160.38;5076454;28;20044;-45
2021/04/06 10:04:57;;;;;;;9.15;7.95;;;;;;;28.54;15.99;93140.25;5077733;28;20090;-46
2021/04/06 10:07:29;;;;;;;9.95;7.88;;;;;;;28.99;15.69;93142.00;5092240;28;20055;-45
2021/04/06 10:10:03;;;;;;;10.18;8.00;;;;;;;28.60;16.02;93133.16;5097648;28;20047;-46
2021/04/06 10:12:32;;;;;;;11.05;7.80;;;;;;;29.01;16.28;93139.63;5097716;28;20370;-44
2021/04/06 10:15:00;;;;;;;8.70;7.32;;;;;;;29.09;16.28;93140.91;5097663;28;20549;-44
2021/04/06 10:17:41;;;;;;;11.98;7.35;;;;;;;28.89;16.30;93126.94;5081999;28;20405;-44
2021/04/06 10:20:13;;;;;;;8.73;7.00;;;;;;;28.90;16.76;93115.03;5077294;28;20048;-44
2021/04/06 10:22:45;;;;;;;10.38;7.25;;;;;;;29.32;16.82;93116.31;5077261;28;20071;-46
2021/04/06 10:25:16;;;;;;;10.70;7.55;;;;;;;28.96;17.33;93107.91;5077249;28;20052;-45
2021/04/06 10:27:53;;;;;;;9.57;7.43;;;;;;;28.80;16.15;93108.75;5076834;28;20390;-46
2021/04/06 10:30:41;;;;;;;33.47;25.27;;;;;;;29.07;17.69;93105.63;5077023;28;20059;-46
2021/04/06 10:33:10;;;;;;;11.80;8.27;;;;;;;29.21;16.00;93085.56;5090989;28;20473;-46
2021/04/06 10:35:45;;;;;;;13.68;10.85;;;;;;;29.19;15.84;93088.69;5097495;28;20050;-44
2021/04/06 10:38:45;;;;;;;10.77;8.15;;;;;;;29.43;15.63;93079.03;5077318;28;20045;-45
2021/04/06 10:41:17;;;;;;;11.55;7.85;;;;;;;29.59;16.84;93074.69;5043863;28;20063;-47
2021/04/06 10:43:50;;;;;;;11.40;8.50;;;;;;;29.22;17.14;93066.31;5076716;28;20051;-45
2021/04/06 10:46:24;;;;;;;11.52;8.40;;;;;;;29.51;17.16;93051.91;5080893;28;20044;-44
2021/04/06 10:49:03;;;;;;;10.60;7.22;;;;;;;29.51;17.25;93059.97;5096966;28;20036;-45
2021/04/06 10:51:32;;;;;;;9.30;7.18;;;;;;;29.79;16.52;93050.88;5096937;28;20051;-46
2021/04/06 10:54:08;;;;;;;8.95;7.38;;;;;;;29.64;16.59;93045.25;5096819;28;20044;-45
2021/04/06 10:57:01;;;;;;;8.38;7.38;;;;;;;29.46;16.26;93029.00;5096606;28;20114;-45
2021/04/06 10:59:33;;;;;;;9.18;6.80;;;;;;;29.68;16.86;93023.59;5093747;28;20048;-45
2021/04/06 11:02:01;;;;;;;9.05;7.03;;;;;;;30.01;18.00;93029.31;5091970;28;20048;-46
2021/04/06 11:04:30;;;;;;;9.05;6.78;;;;;;;30.16;15.15;93019.53;5076522;28;20438;-47
2021/04/06 11:07:00;;;;;;;9.95;6.88;;;;;;;29.75;15.46;93016.00;5081481;28;20443;-47
2021/04/06 11:09:34;;;;;;;7.53;6.45;;;;;;;29.43;15.61;93003.69;5075994;28;20336;-43
2021/04/06 11:12:02;;;;;;;10.88;6.95;;;;;;;29.29;15.52;93004.16;5075963;28;20040;-45
2021/04/06 11:14:33;;;;;;;7.90;6.35;;;;;;;29.64;15.88;92996.03;5076086;28;20052;-45
2021/04/06 11:17:05;;;;;;;8.93;6.15;;;;;;;29.83;15.50;92986.13;5086192;28;20051;-46
2021/04/06 11:19:34;;;;;;;8.55;6.20;;;;;;;30.01;16.99;92992.34;5076251;28;20044;-46
2021/04/06 11:22:11;;;;;;;10.40;6.90;;;;;;;29.43;17.32;92982.16;5075932;28;20048;-47
2021/04/06 11:24:40;;;;;;;10.52;6.75;;;;;;;29.28;17.12;92978.44;5076101;28;20048;-44
2021/04/06 11:27:09;;;;;;;7.65;6.40;;;;;;;29.45;16.76;92979.78;5075653;28;20052;-45
2021/04/06 11:29:38;;;;;;;9.98;6.55;;;;;;;29.73;15.48;92972.63;5075952;28;20443;-49
2021/04/06 11:32:14;;;;;;;7.28;6.53;;;;;;;29.17;15.90;92970.00;5080385;28;20048;-47
2021/04/06 11:34:41;;;;;;;7.80;6.10;;;;;;;29.41;15.94;92957.59;5096207;28;20054;-45
2021/04/06 11:37:10;;;;;;;9.32;6.15;;;;;;;29.87;16.06;92954.41;5095109;28;20040;-43
2021/04/06 11:39:40;;;;;;;7.82;6.00;;;;;;;29.87;15.22;92955.16;5095540;28;20039;-45
2021/04/06 11:42:09;;;;;;;10.85;6.88;;;;;;;29.66;15.78;92950.56;5095927;28;20051;-44
2021/04/06 11:44:37;;;;;;;9.63;6.10;;;;;;;29.66;16.09;92945.19;5096025;28;20051;-45
2021/04/06 11:47:04;;;;;;;10.38;6.65;;;;;;;29.56;17.08;92936.31;5093302;28;20044;-45